createdAt,value
2022-10-09T00:01:25.881Z,9.70
2022-10-09T00:03:57.064Z,9.60
2022-10-09T00:06:28.956Z,9.70
2022-10-09T00:08:57.221Z,9.70
2022-10-09T00:11:27.848Z,9.70
2022-10-09T00:13:57.123Z,9.70
2022-10-09T00:16:26.445Z,9.80
2022-10-09T00:18:56.014Z,9.90
2022-10-09T00:21:26.266Z,10.00
2022-10-09T00:23:59.609Z,10.00
2022-10-09T00:26:28.457Z,9.90
2022-10-09T00:28:57.438Z,9.80
2022-10-09T00:31:27.190Z,9.70
2022-10-09T00:33:55.277Z,9.60
2022-10-09T00:36:25.200Z,9.70
2022-10-09T00:38:56.395Z,9.70
2022-10-09T00:41:28.076Z,9.60
2022-10-09T00:43:58.413Z,9.70
2022-10-09T00:46:33.868Z,9.60
2022-10-09T00:49:09.981Z,9.60
2022-10-09T00:51:38.399Z,9.50
2022-10-09T00:54:11.000Z,9.50
2022-10-09T00:56:40.041Z,9.40
2022-10-09T00:59:08.759Z,9.40
2022-10-09T01:01:36.922Z,9.30
2022-10-09T01:04:05.215Z,9.20
2022-10-09T01:06:46.330Z,9.30
2022-10-09T01:09:19.313Z,9.40
2022-10-09T01:11:51.830Z,9.30
2022-10-09T01:14:26.823Z,9.30
2022-10-09T01:17:02.998Z,9.20
2022-10-09T01:19:51.379Z,9.40
2022-10-09T01:22:34.238Z,9.40
2022-10-09T01:25:08.695Z,9.40
2022-10-09T01:27:39.944Z,9.10
2022-10-09T01:30:11.024Z,9.20
2022-10-09T01:32:42.199Z,9.30
2022-10-09T01:35:12.751Z,9.50
2022-10-09T01:37:43.346Z,9.50
2022-10-09T01:40:13.969Z,9.60
2022-10-09T01:42:44.134Z,9.50
2022-10-09T01:45:13.216Z,9.50
2022-10-09T01:47:42.140Z,9.50
2022-10-09T01:50:16.626Z,9.50
2022-10-09T01:52:49.787Z,9.40
2022-10-09T01:55:36.339Z,9.40
2022-10-09T01:58:11.511Z,9.40
2022-10-09T02:00:46.410Z,9.30
2022-10-09T02:03:17.589Z,9.40
2022-10-09T02:05:48.210Z,9.40
2022-10-09T02:08:20.407Z,9.30
2022-10-09T02:10:51.287Z,9.40
2022-10-09T02:13:21.830Z,9.50
2022-10-09T02:15:53.867Z,9.30
2022-10-09T02:18:28.288Z,9.50
2022-10-09T02:21:01.213Z,9.60
2022-10-09T02:23:30.203Z,9.50
2022-10-09T02:25:58.704Z,9.50
2022-10-09T02:28:28.384Z,9.30
2022-10-09T02:31:03.123Z,9.40
2022-10-09T02:33:35.000Z,9.40
2022-10-09T02:36:03.562Z,9.60
2022-10-09T02:38:31.810Z,9.30
2022-10-09T02:41:00.597Z,9.30
2022-10-09T02:43:30.390Z,9.30
2022-10-09T02:45:58.523Z,9.10
2022-10-09T02:48:27.119Z,9.20
2022-10-09T02:50:55.526Z,9.30
2022-10-09T02:53:23.640Z,9.30
2022-10-09T02:55:51.758Z,9.40
2022-10-09T02:58:20.086Z,9.30
2022-10-09T03:00:51.293Z,9.30
2022-10-09T03:03:20.668Z,9.20
2022-10-09T03:05:49.248Z,9.10
2022-10-09T03:08:17.372Z,9.10
2022-10-09T03:10:45.616Z,9.10
2022-10-09T03:13:14.084Z,9.00
2022-10-09T03:15:42.159Z,9.10
2022-10-09T03:18:11.904Z,9.10
2022-10-09T03:20:40.514Z,9.10
2022-10-09T03:23:08.626Z,9.00
2022-10-09T03:25:37.018Z,9.00
2022-10-09T03:28:05.872Z,9.10
2022-10-09T03:30:34.035Z,9.10
2022-10-09T03:33:02.743Z,9.10
2022-10-09T03:35:32.491Z,9.20
2022-10-09T03:38:00.646Z,9.20
2022-10-09T03:40:29.030Z,9.30
2022-10-09T03:42:57.152Z,9.10
2022-10-09T03:45:25.474Z,9.20
2022-10-09T03:47:53.911Z,9.10
2022-10-09T03:50:22.117Z,9.10
2022-10-09T03:52:51.960Z,9.10
2022-10-09T03:55:20.830Z,9.00
2022-10-09T03:57:48.960Z,8.90
2022-10-09T04:00:17.762Z,8.90
2022-10-09T04:02:46.617Z,9.00
2022-10-09T04:05:15.338Z,9.10
2022-10-09T04:07:43.447Z,9.20
2022-10-09T04:10:13.801Z,9.10
2022-10-09T04:12:42.136Z,9.10
2022-10-09T04:15:11.368Z,9.10
2022-10-09T04:17:39.748Z,8.90
2022-10-09T04:20:08.826Z,9.00
2022-10-09T04:22:36.928Z,9.00
2022-10-09T04:25:05.620Z,9.00
2022-10-09T04:27:35.228Z,8.90
2022-10-09T04:30:03.285Z,8.80
2022-10-09T04:32:31.911Z,8.80
2022-10-09T04:35:00.012Z,8.80
2022-10-09T04:37:28.086Z,8.80
2022-10-09T04:39:56.837Z,8.70
2022-10-09T04:42:25.312Z,8.70
2022-10-09T04:44:54.804Z,8.90
2022-10-09T04:47:23.166Z,8.80
2022-10-09T04:49:51.489Z,8.80
2022-10-09T04:52:19.606Z,8.70
2022-10-09T04:54:48.059Z,8.80
2022-10-09T04:57:16.269Z,9.00
2022-10-09T04:59:44.432Z,8.90
2022-10-09T05:02:14.176Z,8.80
2022-10-09T05:04:44.040Z,8.80
2022-10-09T05:07:12.287Z,8.90
2022-10-09T05:09:41.180Z,8.80
2022-10-09T05:12:09.810Z,8.80
2022-10-09T05:14:37.902Z,8.70
2022-10-09T05:17:13.988Z,8.70
2022-10-09T05:19:43.917Z,8.70
2022-10-09T05:22:12.162Z,8.60
2022-10-09T05:24:40.350Z,8.60
2022-10-09T05:27:08.693Z,8.70
2022-10-09T05:29:36.936Z,8.50
2022-10-09T05:32:05.251Z,8.60
2022-10-09T05:34:35.032Z,8.60
2022-10-09T05:37:05.555Z,8.60
2022-10-09T05:39:35.889Z,8.40
2022-10-09T05:42:04.191Z,8.40
2022-10-09T05:44:32.443Z,8.40
2022-10-09T05:47:00.588Z,8.30
2022-10-09T05:49:28.764Z,8.20
2022-10-09T05:51:57.351Z,8.30
2022-10-09T05:54:27.372Z,8.20
2022-10-09T05:56:55.781Z,8.10
2022-10-09T05:59:24.215Z,8.00
2022-10-09T06:01:54.837Z,8.10
2022-10-09T06:04:24.891Z,7.90
2022-10-09T06:06:53.594Z,7.90
2022-10-09T06:09:24.033Z,8.10
2022-10-09T06:11:55.274Z,7.90
2022-10-09T06:14:24.512Z,8.00
2022-10-09T06:16:53.111Z,8.00
2022-10-09T06:19:21.942Z,8.00
2022-10-09T06:21:50.678Z,8.00
2022-10-09T06:24:24.526Z,8.00
2022-10-09T06:26:58.172Z,7.90
2022-10-09T06:29:26.708Z,7.90
2022-10-09T06:31:54.897Z,8.00
2022-10-09T06:34:23.318Z,8.00
2022-10-09T06:36:51.726Z,8.20
2022-10-09T06:39:20.063Z,8.20
2022-10-09T06:41:48.552Z,8.40
2022-10-09T06:44:18.399Z,8.60
2022-10-09T06:46:49.725Z,8.60
2022-10-09T06:49:18.148Z,8.80
2022-10-09T06:51:46.304Z,8.90
2022-10-09T06:54:17.474Z,9.00
2022-10-09T06:56:46.202Z,9.00
2022-10-09T06:59:14.784Z,9.10
2022-10-09T07:01:44.794Z,9.10
2022-10-09T07:04:14.804Z,9.10
2022-10-09T07:06:44.805Z,9.20
2022-10-09T07:09:15.258Z,9.30
2022-10-09T07:11:49.311Z,9.40
2022-10-09T07:14:18.645Z,9.40
2022-10-09T07:16:49.733Z,9.50
2022-10-09T07:19:19.406Z,9.70
2022-10-09T07:21:49.247Z,9.80
2022-10-09T07:24:20.611Z,10.10
2022-10-09T07:26:49.469Z,10.60
2022-10-09T07:29:19.889Z,11.30
2022-10-09T07:31:50.043Z,12.10
2022-10-09T07:34:18.393Z,12.40
2022-10-09T07:36:46.607Z,12.70
2022-10-09T07:39:14.917Z,13.20
2022-10-09T07:41:44.275Z,13.60
2022-10-09T07:44:12.461Z,14.10
2022-10-09T07:46:40.828Z,14.40
2022-10-09T07:49:10.680Z,14.50
2022-10-09T07:51:38.938Z,14.90
2022-10-09T07:54:07.267Z,15.10
2022-10-09T07:56:37.968Z,15.30
2022-10-09T07:59:08.993Z,15.80
2022-10-09T08:01:38.088Z,16.30
2022-10-09T08:04:06.900Z,16.80
2022-10-09T08:06:36.949Z,17.00
2022-10-09T08:09:06.829Z,17.00
2022-10-09T08:11:35.652Z,17.00
2022-10-09T08:14:06.898Z,17.00
2022-10-09T08:16:35.179Z,16.80
2022-10-09T08:19:03.807Z,16.40
2022-10-09T08:21:33.084Z,16.50
2022-10-09T08:24:02.733Z,16.50
2022-10-09T08:26:32.066Z,16.60
2022-10-09T08:29:01.680Z,16.50
2022-10-09T08:31:31.674Z,16.30
2022-10-09T08:34:01.829Z,16.10
2022-10-09T08:36:31.231Z,15.50
2022-10-09T08:38:59.855Z,15.30
2022-10-09T08:41:44.825Z,15.50
2022-10-09T08:44:16.933Z,15.20
2022-10-09T08:46:58.709Z,15.10
2022-10-09T08:49:33.793Z,15.40
2022-10-09T08:52:14.494Z,15.70
2022-10-09T08:54:44.719Z,16.20
2022-10-09T08:57:17.095Z,16.00
2022-10-09T08:59:45.582Z,16.40
2022-10-09T09:02:43.073Z,16.60
2022-10-09T09:05:24.008Z,17.00
2022-10-09T09:08:01.197Z,16.90
2022-10-09T09:10:41.804Z,16.80
2022-10-09T09:13:37.099Z,17.00
2022-10-09T09:16:15.502Z,17.10
2022-10-09T09:18:51.376Z,17.20
2022-10-09T09:21:36.503Z,17.40
2022-10-09T09:24:13.398Z,17.30
2022-10-09T09:26:44.123Z,17.10
2022-10-09T09:29:17.303Z,17.50
2022-10-09T09:31:49.415Z,17.30
2022-10-09T09:34:25.301Z,17.30
2022-10-09T09:36:56.751Z,17.40
2022-10-09T09:42:19.190Z,17.90
2022-10-09T09:44:56.999Z,18.40
2022-10-09T09:47:31.285Z,18.70
2022-10-09T09:50:01.499Z,18.80
2022-10-09T09:52:33.341Z,19.20
2022-10-09T09:55:01.713Z,19.30
2022-10-09T09:57:34.334Z,19.20
2022-10-09T10:00:22.784Z,19.10
2022-10-09T10:02:52.226Z,19.50
2022-10-09T10:05:24.346Z,19.60
2022-10-09T10:07:53.027Z,19.60
2022-10-09T10:10:25.650Z,19.90
2022-10-09T10:12:59.211Z,20.20
2022-10-09T10:15:30.871Z,20.30
2022-10-09T10:18:04.616Z,20.60
2022-10-09T10:20:42.907Z,20.90
2022-10-09T10:23:27.595Z,20.90
2022-10-09T10:25:58.855Z,20.90
2022-10-09T10:28:32.581Z,20.50
2022-10-09T10:31:07.094Z,20.40
2022-10-09T10:33:37.782Z,20.20
2022-10-09T10:36:06.960Z,20.20
2022-10-09T10:38:42.046Z,20.20
2022-10-09T10:41:15.760Z,20.10
2022-10-09T10:43:45.926Z,19.70
2022-10-09T10:46:23.769Z,19.70
2022-10-09T10:48:52.874Z,19.60
2022-10-09T10:51:39.321Z,19.50
2022-10-09T10:54:21.750Z,19.70
2022-10-09T10:56:57.147Z,19.50
2022-10-09T10:59:40.631Z,19.60
2022-10-09T11:02:56.962Z,19.60
2022-10-09T11:05:37.829Z,20.10
2022-10-09T11:08:28.573Z,20.00
2022-10-09T11:11:04.433Z,19.60
2022-10-09T11:13:36.068Z,19.60
2022-10-09T11:16:20.305Z,19.80
2022-10-09T11:19:07.205Z,19.70
2022-10-09T11:21:54.199Z,19.80
2022-10-09T11:24:48.271Z,19.60
2022-10-09T11:27:22.181Z,19.80
2022-10-09T11:29:55.364Z,20.10
2022-10-09T11:32:29.048Z,20.50
2022-10-09T11:35:03.303Z,20.60
2022-10-09T11:37:35.209Z,20.60
2022-10-09T11:40:08.767Z,20.20
2022-10-09T11:42:36.967Z,19.60
2022-10-09T11:45:18.092Z,19.70
2022-10-09T11:47:53.263Z,20.00
2022-10-09T11:50:37.842Z,20.20
2022-10-09T11:53:10.606Z,20.60
2022-10-09T11:55:40.172Z,20.80
2022-10-09T11:58:23.885Z,20.50
2022-10-09T12:00:55.037Z,19.90
2022-10-09T12:03:33.778Z,19.70
2022-10-09T12:06:10.114Z,19.60
2022-10-09T12:08:40.774Z,19.20
2022-10-09T12:11:15.748Z,19.30
2022-10-09T12:13:55.512Z,19.60
2022-10-09T12:16:42.309Z,20.10
2022-10-09T12:19:21.184Z,20.40
2022-10-09T12:22:00.589Z,20.60
2022-10-09T12:24:33.942Z,20.90
2022-10-09T12:27:04.382Z,21.00
2022-10-09T12:29:37.392Z,21.10
2022-10-09T12:32:16.595Z,20.50
2022-10-09T12:34:48.496Z,20.10
2022-10-09T12:37:20.105Z,20.10
2022-10-09T12:39:50.519Z,20.00
2022-10-09T12:42:23.526Z,19.90
2022-10-09T12:44:55.101Z,19.80
2022-10-09T12:47:26.912Z,19.30
2022-10-09T12:50:03.077Z,19.30
2022-10-09T12:52:33.408Z,19.10
2022-10-09T12:55:03.508Z,19.30
2022-10-09T12:57:32.069Z,19.60
2022-10-09T13:00:00.340Z,19.90
2022-10-09T13:02:28.774Z,20.20
2022-10-09T13:04:59.932Z,20.30
2022-10-09T13:07:32.396Z,20.00
2022-10-09T13:10:06.084Z,19.70
2022-10-09T13:12:35.291Z,19.90
2022-10-09T13:15:05.545Z,20.00
2022-10-09T13:17:36.273Z,20.30
2022-10-09T13:20:23.966Z,20.40
2022-10-09T13:22:57.820Z,20.50
2022-10-09T13:25:29.963Z,20.70
2022-10-09T13:27:58.705Z,20.80
2022-10-09T13:30:28.294Z,20.80
2022-10-09T13:32:56.472Z,20.70
2022-10-09T13:35:25.102Z,20.30
2022-10-09T13:37:53.466Z,20.20
2022-10-09T13:40:22.402Z,20.00
2022-10-09T13:42:56.781Z,19.70
2022-10-09T13:45:25.265Z,19.70
2022-10-09T13:47:53.651Z,19.60
2022-10-09T13:50:22.276Z,19.70
2022-10-09T13:52:50.591Z,20.00
2022-10-09T13:55:19.444Z,19.90
2022-10-09T13:57:48.484Z,19.90
2022-10-09T14:00:18.378Z,19.60
2022-10-09T14:02:46.727Z,19.60
2022-10-09T14:05:15.119Z,19.60
2022-10-09T14:07:43.362Z,19.40
2022-10-09T14:10:11.976Z,19.50
2022-10-09T14:12:40.381Z,19.30
2022-10-09T14:15:09.175Z,19.30
2022-10-09T14:17:38.794Z,19.20
2022-10-09T14:20:07.920Z,19.10
2022-10-09T14:22:36.098Z,19.00
2022-10-09T14:25:04.952Z,18.90
2022-10-09T14:30:07.171Z,18.70
2022-10-09T14:32:35.678Z,18.60
2022-10-09T14:35:05.475Z,18.50
2022-10-09T14:37:41.638Z,18.60
2022-10-09T14:40:11.437Z,18.40
2022-10-09T14:42:40.488Z,18.60
2022-10-09T14:45:10.442Z,18.50
2022-10-09T14:47:38.931Z,18.40
2022-10-09T14:50:09.598Z,18.60
2022-10-09T14:52:37.703Z,18.70
2022-10-09T14:55:06.640Z,18.60
2022-10-09T14:57:35.740Z,18.70
2022-10-09T15:00:05.603Z,18.70
2022-10-09T15:02:34.006Z,18.60
2022-10-09T15:05:02.234Z,18.70
2022-10-09T15:07:33.707Z,18.80
2022-10-09T15:10:01.947Z,18.60
2022-10-09T15:12:30.138Z,18.60
2022-10-09T15:14:58.224Z,18.60
2022-10-09T15:17:26.457Z,18.50
2022-10-09T15:19:55.206Z,18.60
2022-10-09T15:22:23.364Z,18.70
2022-10-09T15:24:53.073Z,18.70
2022-10-09T15:27:21.338Z,18.80
2022-10-09T15:29:49.528Z,18.80
2022-10-09T15:32:17.869Z,18.50
2022-10-09T15:34:46.023Z,18.60
2022-10-09T15:37:14.278Z,18.50
2022-10-09T15:39:42.895Z,18.30
2022-10-09T15:42:12.691Z,18.30
2022-10-09T15:44:43.608Z,18.20
2022-10-09T15:47:16.565Z,18.30
2022-10-09T15:49:46.595Z,18.30
2022-10-09T15:52:17.358Z,18.20
2022-10-09T15:54:45.569Z,18.30
2022-10-09T15:57:15.430Z,18.10
2022-10-09T15:59:43.629Z,18.10
2022-10-09T16:02:12.137Z,18.00
2022-10-09T16:04:40.556Z,17.90
2022-10-09T16:07:08.850Z,17.80
2022-10-09T16:09:38.347Z,17.80
2022-10-09T16:12:06.729Z,17.70
2022-10-09T16:14:38.141Z,17.70
2022-10-09T16:17:10.963Z,17.70
2022-10-09T16:19:40.144Z,17.70
2022-10-09T16:22:08.320Z,17.60
2022-10-09T16:24:36.468Z,17.50
2022-10-09T16:27:05.139Z,17.50
2022-10-09T16:29:34.938Z,17.50
2022-10-09T16:32:03.107Z,17.40
2022-10-09T16:34:31.457Z,17.40
2022-10-09T16:37:02.216Z,17.40
2022-10-09T16:39:30.370Z,17.40
2022-10-09T16:42:02.094Z,17.30
2022-10-09T16:44:31.330Z,17.10
2022-10-09T16:47:00.888Z,17.10
2022-10-09T16:49:29.221Z,17.10
2022-10-09T16:51:57.790Z,17.00
2022-10-09T16:54:25.936Z,16.90
2022-10-09T16:56:54.327Z,16.90
2022-10-09T16:59:22.846Z,16.90
2022-10-09T17:01:50.955Z,16.70
2022-10-09T17:04:20.655Z,16.70
2022-10-09T17:06:49.001Z,16.60
2022-10-09T17:09:17.219Z,16.50
2022-10-09T17:11:46.192Z,16.40
2022-10-09T17:14:15.156Z,16.40
2022-10-09T17:16:44.649Z,16.30
2022-10-09T17:19:13.080Z,16.20
2022-10-09T17:21:43.115Z,16.20
2022-10-09T17:24:15.428Z,16.10
2022-10-09T17:26:43.770Z,16.00
2022-10-09T17:29:13.245Z,16.00
2022-10-09T17:31:41.920Z,15.90
2022-10-09T17:34:10.156Z,15.80
2022-10-09T17:36:40.247Z,15.70
2022-10-09T17:39:13.180Z,15.60
2022-10-09T17:41:41.321Z,15.60
2022-10-09T17:44:10.839Z,15.60
2022-10-09T17:46:39.490Z,15.50
2022-10-09T17:49:07.733Z,15.40
2022-10-09T17:51:39.002Z,15.30
2022-10-09T17:54:12.301Z,15.20
2022-10-09T17:56:41.114Z,15.20
2022-10-09T17:59:09.973Z,15.10
2022-10-09T18:01:38.450Z,15.10
2022-10-09T18:04:06.778Z,15.00
2022-10-09T18:06:36.253Z,14.90
2022-10-09T18:09:05.316Z,14.90
2022-10-09T18:11:34.948Z,14.80
2022-10-09T18:14:03.901Z,14.70
2022-10-09T18:16:36.944Z,14.60
2022-10-09T18:19:08.680Z,14.60
2022-10-09T18:21:38.732Z,14.60
2022-10-09T18:24:07.600Z,14.60
2022-10-09T18:26:37.304Z,14.60
2022-10-09T18:29:06.517Z,14.50
2022-10-09T18:31:34.975Z,14.50
2022-10-09T18:34:03.365Z,14.50
2022-10-09T18:36:34.074Z,14.40
2022-10-09T18:39:05.898Z,14.30
2022-10-09T18:41:34.362Z,14.30
2022-10-09T18:44:04.973Z,14.20
2022-10-09T18:46:38.491Z,14.30
2022-10-09T18:49:09.752Z,14.20
2022-10-09T18:51:39.358Z,14.20
2022-10-09T18:54:08.219Z,14.30
2022-10-09T18:56:38.092Z,14.10
2022-10-09T18:59:11.565Z,14.00
2022-10-09T19:01:40.234Z,13.90
2022-10-09T19:04:08.415Z,13.80
2022-10-09T19:06:37.236Z,13.80
2022-10-09T19:09:05.787Z,13.80
2022-10-09T19:11:35.626Z,13.80
2022-10-09T19:14:04.007Z,13.90
2022-10-09T19:16:35.407Z,13.80
2022-10-09T19:19:04.766Z,13.70
2022-10-09T19:21:33.110Z,13.50
2022-10-09T19:24:04.624Z,13.50
2022-10-09T19:26:35.230Z,13.60
2022-10-09T19:29:03.710Z,13.60
2022-10-09T19:31:33.690Z,13.50
2022-10-09T19:34:02.505Z,13.60
2022-10-09T19:36:33.313Z,13.60
2022-10-09T19:39:02.409Z,13.40
2022-10-09T19:41:30.735Z,13.50
2022-10-09T19:44:00.123Z,13.40
2022-10-09T19:46:29.231Z,13.50
2022-10-09T19:48:58.902Z,13.40
2022-10-09T19:51:27.984Z,13.50
2022-10-09T19:53:56.577Z,13.30
2022-10-09T19:56:27.245Z,13.30
2022-10-09T19:58:56.563Z,13.10
2022-10-09T20:01:27.538Z,13.10
2022-10-09T20:03:58.825Z,13.00
2022-10-09T20:06:27.907Z,13.00
2022-10-09T20:08:56.632Z,13.00
2022-10-09T20:11:25.151Z,12.90
2022-10-09T20:13:56.055Z,12.90
2022-10-09T20:16:26.023Z,12.80
2022-10-09T20:18:55.872Z,12.70
2022-10-09T20:21:25.428Z,12.70
2022-10-09T20:23:54.046Z,12.60
2022-10-09T20:26:22.846Z,12.60
2022-10-09T20:28:53.772Z,12.60
2022-10-09T20:31:24.207Z,12.60
2022-10-09T20:33:54.024Z,12.60
2022-10-09T20:36:26.455Z,12.70
2022-10-09T20:38:57.315Z,12.70
2022-10-09T20:41:25.911Z,12.60
2022-10-09T20:43:54.896Z,12.50
2022-10-09T20:46:24.420Z,12.30
2022-10-09T20:48:53.454Z,12.10
2022-10-09T20:51:23.121Z,12.30
2022-10-09T20:53:56.080Z,12.20
2022-10-09T20:56:25.925Z,12.10
2022-10-09T20:58:54.727Z,12.00
2022-10-09T21:01:23.563Z,12.10
2022-10-09T21:03:52.719Z,12.00
2022-10-09T21:06:22.311Z,12.00
2022-10-09T21:08:50.637Z,11.90
2022-10-09T21:11:20.776Z,12.00
2022-10-09T21:13:49.842Z,11.80
2022-10-09T21:16:22.088Z,11.60
2022-10-09T21:18:55.273Z,11.50
2022-10-09T21:21:23.703Z,11.50
2022-10-09T21:23:53.266Z,11.50
2022-10-09T21:26:24.442Z,11.60
2022-10-09T21:28:58.264Z,11.80
2022-10-09T21:31:29.873Z,11.90
2022-10-09T21:33:58.541Z,12.00
2022-10-09T21:36:33.975Z,12.00
2022-10-09T21:39:02.265Z,12.00
2022-10-09T21:41:32.976Z,12.00
2022-10-09T21:44:01.945Z,11.80
2022-10-09T21:46:30.627Z,12.00
2022-10-09T21:48:59.072Z,12.00
2022-10-09T21:51:28.693Z,12.10
2022-10-09T21:53:57.042Z,12.20
2022-10-09T21:56:25.370Z,12.20
2022-10-09T21:58:55.092Z,12.10
2022-10-09T22:01:23.296Z,12.10
2022-10-09T22:03:51.504Z,12.10
2022-10-09T22:06:20.033Z,12.20
2022-10-09T22:08:48.932Z,12.20
2022-10-09T22:11:17.656Z,12.30
2022-10-09T22:13:45.971Z,12.10
2022-10-09T22:16:16.595Z,12.10
2022-10-09T22:18:45.003Z,12.20
2022-10-09T22:21:15.766Z,12.20
2022-10-09T22:23:44.349Z,12.30
2022-10-09T22:26:14.359Z,12.30
2022-10-09T22:28:42.826Z,12.30
2022-10-09T22:31:15.227Z,12.30
2022-10-09T22:33:45.492Z,12.20
2022-10-09T22:36:16.070Z,12.40
2022-10-09T22:38:45.699Z,12.30
2022-10-09T22:41:15.645Z,12.20
2022-10-09T22:43:47.314Z,12.20
2022-10-09T22:46:17.938Z,12.20
2022-10-09T22:48:48.449Z,12.20
2022-10-09T22:51:19.348Z,12.30
2022-10-09T22:53:48.601Z,12.30
2022-10-09T22:56:19.083Z,12.20
2022-10-09T22:58:48.004Z,12.20
2022-10-09T23:01:18.570Z,12.30
2022-10-09T23:03:48.452Z,12.20
2022-10-09T23:06:17.789Z,12.20
2022-10-09T23:08:48.261Z,12.10
2022-10-09T23:11:18.622Z,12.20
2022-10-09T23:13:47.218Z,12.10
2022-10-09T23:16:16.346Z,12.10
2022-10-09T23:18:45.457Z,12.00
2022-10-09T23:21:19.914Z,12.00
2022-10-09T23:23:49.027Z,12.20
2022-10-09T23:26:19.544Z,12.10
2022-10-09T23:28:51.604Z,12.20
2022-10-09T23:31:20.114Z,12.20
2022-10-09T23:33:48.848Z,12.20
2022-10-09T23:36:22.686Z,12.20
2022-10-09T23:38:51.154Z,12.20
2022-10-09T23:41:21.175Z,12.20
2022-10-09T23:43:50.945Z,12.10
2022-10-09T23:46:22.215Z,12.20
2022-10-09T23:48:51.941Z,12.00
2022-10-09T23:51:23.507Z,12.10
2022-10-09T23:53:51.704Z,12.10
2022-10-09T23:56:22.226Z,12.00
2022-10-09T23:58:50.716Z,12.00
